createdAt,value
2023-02-24T00:02:08.281Z,57.91
2023-02-24T00:04:41.798Z,57.85
2023-02-24T00:07:13.979Z,57.86
2023-02-24T00:09:46.748Z,58.02
2023-02-24T00:12:19.195Z,58.07
2023-02-24T00:14:49.728Z,57.92
2023-02-24T00:17:20.004Z,58.00
2023-02-24T00:19:50.072Z,57.94
2023-02-24T00:22:20.054Z,58.03
2023-02-24T00:24:50.035Z,58.00
2023-02-24T00:27:20.061Z,58.22
2023-02-24T00:29:49.912Z,57.81
2023-02-24T00:32:19.950Z,57.83
2023-02-24T00:34:52.520Z,57.87
2023-02-24T00:37:27.300Z,57.88
2023-02-24T00:40:00.751Z,57.84
2023-02-24T00:42:30.863Z,57.65
2023-02-24T00:45:01.056Z,57.47
2023-02-24T00:47:31.240Z,57.50
2023-02-24T00:50:01.201Z,57.91
2023-02-24T00:52:31.087Z,57.40
2023-02-24T00:55:01.499Z,57.60
2023-02-24T00:57:32.603Z,57.56
2023-02-24T01:00:02.867Z,57.32
2023-02-24T01:02:34.325Z,57.57
2023-02-24T01:05:07.410Z,57.49
2023-02-24T01:07:37.416Z,57.44
2023-02-24T01:10:10.883Z,57.44
2023-02-24T01:12:51.393Z,57.49
2023-02-24T01:15:24.494Z,57.67
2023-02-24T01:17:55.578Z,57.52
2023-02-24T01:20:25.665Z,57.41
2023-02-24T01:22:58.911Z,57.43
2023-02-24T01:25:30.625Z,57.36
2023-02-24T01:28:00.675Z,56.83
2023-02-24T01:30:30.655Z,56.93
2023-02-24T01:33:01.879Z,56.60
2023-02-24T01:35:33.818Z,56.84
2023-02-24T01:38:07.086Z,56.65
2023-02-24T01:40:37.510Z,56.35
2023-02-24T01:43:10.958Z,56.25
2023-02-24T01:45:43.827Z,56.28
2023-02-24T01:48:14.917Z,56.13
2023-02-24T01:50:45.146Z,56.05
2023-02-24T01:53:15.488Z,56.11
2023-02-24T01:56:00.480Z,55.77
2023-02-24T01:58:33.563Z,55.65
2023-02-24T02:01:10.841Z,55.48
2023-02-24T02:03:44.274Z,55.51
2023-02-24T02:06:16.683Z,55.74
2023-02-24T02:08:47.596Z,55.44
2023-02-24T02:11:25.715Z,55.41
2023-02-24T02:14:04.749Z,55.11
2023-02-24T02:16:55.367Z,54.83
2023-02-24T02:20:18.014Z,54.35
2023-02-24T02:23:11.844Z,54.40
2023-02-24T02:26:04.271Z,54.35
2023-02-24T02:29:12.032Z,54.39
2023-02-24T02:32:09.773Z,54.63
2023-02-24T02:35:05.825Z,54.57
2023-02-24T02:37:54.275Z,54.90
2023-02-24T02:40:39.755Z,54.80
2023-02-24T02:43:12.668Z,54.69
2023-02-24T02:45:58.104Z,54.38
2023-02-24T02:48:40.653Z,54.45
2023-02-24T02:51:15.402Z,54.26
2023-02-24T02:54:12.767Z,54.45
2023-02-24T02:59:40.460Z,54.17
2023-02-24T03:02:15.385Z,54.23
2023-02-24T03:05:04.270Z,54.08
2023-02-24T03:07:39.733Z,53.83
2023-02-24T03:10:20.132Z,53.97
2023-02-24T03:12:57.652Z,54.05
2023-02-24T03:15:30.468Z,54.26
2023-02-24T03:18:52.072Z,54.23
2023-02-24T03:21:39.243Z,53.82
2023-02-24T03:24:10.166Z,54.21
2023-02-24T03:26:54.196Z,54.05
2023-02-24T03:29:42.037Z,53.83
2023-02-24T03:32:38.804Z,53.78
2023-02-24T03:35:21.442Z,53.69
2023-02-24T03:37:53.378Z,53.81
2023-02-24T03:40:25.471Z,53.79
2023-02-24T03:43:07.587Z,54.01
2023-02-24T03:45:40.973Z,53.27
2023-02-24T03:48:15.216Z,53.68
2023-02-24T03:50:48.394Z,53.54
2023-02-24T03:53:46.712Z,53.82
2023-02-24T03:56:25.605Z,53.84
2023-02-24T03:59:30.211Z,53.98
2023-02-24T04:02:26.576Z,53.44
2023-02-24T04:05:12.856Z,53.58
2023-02-24T04:08:03.873Z,53.20
2023-02-24T04:10:44.046Z,53.53
2023-02-24T04:13:49.857Z,53.38
2023-02-24T04:16:45.534Z,53.16
2023-02-24T04:19:21.840Z,53.26
2023-02-24T04:21:54.994Z,53.00
2023-02-24T04:24:33.292Z,53.39
2023-02-24T04:27:06.651Z,53.10
2023-02-24T04:29:52.485Z,52.98
2023-02-24T04:32:28.606Z,52.55
2023-02-24T04:35:11.752Z,52.50
2023-02-24T04:37:47.611Z,51.83
2023-02-24T04:40:24.165Z,51.81
2023-02-24T04:42:56.357Z,51.64
2023-02-24T04:45:30.346Z,50.60
2023-02-24T04:48:05.237Z,51.68
2023-02-24T04:50:40.568Z,51.60
2023-02-24T04:53:14.915Z,51.67
2023-02-24T04:55:50.992Z,52.01
2023-02-24T04:58:24.068Z,51.75
2023-02-24T05:00:55.450Z,51.50
2023-02-24T05:03:33.208Z,51.76
2023-02-24T05:06:03.711Z,51.43
2023-02-24T05:08:35.381Z,50.77
2023-02-24T05:11:06.237Z,50.54
2023-02-24T05:13:36.812Z,50.55
2023-02-24T05:16:10.391Z,50.59
2023-02-24T05:18:40.820Z,50.56
2023-02-24T05:21:33.829Z,50.59
2023-02-24T05:24:13.351Z,49.75
2023-02-24T05:26:43.962Z,49.74
2023-02-24T05:29:14.703Z,49.36
2023-02-24T05:31:45.979Z,49.17
2023-02-24T05:34:19.430Z,49.08
2023-02-24T05:36:52.352Z,48.65
2023-02-24T05:39:23.697Z,48.21
2023-02-24T05:41:57.012Z,48.23
2023-02-24T05:44:28.978Z,48.13
2023-02-24T05:47:01.346Z,47.34
2023-02-24T05:49:36.412Z,47.09
2023-02-24T05:52:11.209Z,46.94
2023-02-24T05:54:44.647Z,47.01
2023-02-24T05:57:19.252Z,46.72
2023-02-24T05:59:55.410Z,46.88
2023-02-24T06:02:29.508Z,46.72
2023-02-24T06:05:01.036Z,46.47
2023-02-24T06:07:36.417Z,46.05
2023-02-24T06:10:11.756Z,45.91
2023-02-24T06:12:42.149Z,45.54
2023-02-24T06:15:12.989Z,45.65
2023-02-24T06:17:43.075Z,45.89
2023-02-24T06:20:17.992Z,45.20
2023-02-24T06:22:48.006Z,45.47
2023-02-24T06:25:17.951Z,45.48
2023-02-24T06:27:48.128Z,45.32
2023-02-24T06:30:18.049Z,45.35
2023-02-24T06:32:47.997Z,44.73
2023-02-24T06:35:18.914Z,44.76
2023-02-24T06:37:50.161Z,44.74
2023-02-24T06:40:20.156Z,44.60
2023-02-24T06:42:57.515Z,44.40
2023-02-24T06:45:28.461Z,44.74
2023-02-24T06:47:58.582Z,44.77
2023-02-24T06:50:28.506Z,44.35
2023-02-24T06:53:02.886Z,44.16
2023-02-24T06:55:33.198Z,44.08
2023-02-24T06:58:07.973Z,43.91
2023-02-24T07:00:41.058Z,43.97
2023-02-24T07:03:21.086Z,43.82
2023-02-24T07:05:56.365Z,44.37
2023-02-24T07:08:29.435Z,43.96
2023-02-24T07:11:21.456Z,43.30
2023-02-24T07:13:52.466Z,43.61
2023-02-24T07:16:27.200Z,43.54
2023-02-24T07:18:59.249Z,43.82
2023-02-24T07:21:54.880Z,43.35
2023-02-24T07:24:35.756Z,43.75
2023-02-24T07:27:09.385Z,43.10
2023-02-24T07:29:40.534Z,43.24
2023-02-24T07:32:11.738Z,42.90
2023-02-24T07:34:44.401Z,43.07
2023-02-24T07:37:15.355Z,42.88
2023-02-24T07:39:45.491Z,42.85
2023-02-24T07:42:15.983Z,42.98
2023-02-24T07:44:48.512Z,42.78
2023-02-24T07:47:18.760Z,42.90
2023-02-24T07:49:48.683Z,42.63
2023-02-24T07:52:18.707Z,43.22
2023-02-24T07:54:48.722Z,43.16
2023-02-24T07:57:21.052Z,42.94
2023-02-24T07:59:52.085Z,43.01
2023-02-24T08:02:22.562Z,43.32
2023-02-24T08:04:53.640Z,43.46
2023-02-24T08:07:26.782Z,43.17
2023-02-24T08:10:25.859Z,43.65
2023-02-24T08:12:58.418Z,43.20
2023-02-24T08:15:36.043Z,43.24
2023-02-24T08:18:07.765Z,43.10
2023-02-24T08:21:04.199Z,42.69
2023-02-24T08:23:46.822Z,43.29
2023-02-24T08:26:17.250Z,43.35
2023-02-24T08:28:47.384Z,43.50
2023-02-24T08:31:20.816Z,43.72
2023-02-24T08:33:51.257Z,43.73
2023-02-24T08:36:24.610Z,43.99
2023-02-24T08:39:01.904Z,43.54
2023-02-24T08:41:47.005Z,43.88
2023-02-24T08:44:21.035Z,43.54
2023-02-24T08:46:52.414Z,43.94
2023-02-24T08:49:26.987Z,43.38
2023-02-24T08:51:57.096Z,43.35
2023-02-24T08:54:30.098Z,43.67
2023-02-24T08:57:20.403Z,43.56
2023-02-24T08:59:59.797Z,43.58
2023-02-24T09:02:32.398Z,44.08
2023-02-24T09:05:10.488Z,43.95
2023-02-24T09:07:43.862Z,43.97
2023-02-24T09:10:21.848Z,44.11
2023-02-24T09:12:55.675Z,43.92
2023-02-24T09:15:27.696Z,43.94
2023-02-24T09:18:09.436Z,44.06
2023-02-24T09:20:58.106Z,43.65
2023-02-24T09:23:48.057Z,43.35
2023-02-24T09:26:18.371Z,43.67
2023-02-24T09:28:51.368Z,43.55
2023-02-24T09:31:22.340Z,44.08
2023-02-24T09:33:56.453Z,43.96
2023-02-24T09:36:32.622Z,44.23
2023-02-24T09:39:03.840Z,44.24
2023-02-24T09:42:10.358Z,44.41
2023-02-24T09:44:47.495Z,44.61
2023-02-24T09:47:59.372Z,44.20
2023-02-24T09:51:02.154Z,44.33
2023-02-24T09:53:51.375Z,44.33
2023-02-24T09:56:27.086Z,44.40
2023-02-24T09:59:13.777Z,44.15
2023-02-24T10:02:04.371Z,44.35
2023-02-24T10:04:51.512Z,44.36
2023-02-24T10:07:40.467Z,44.30
2023-02-24T10:10:27.823Z,44.43
2023-02-24T10:13:16.353Z,44.25
2023-02-24T10:15:59.853Z,44.56
2023-02-24T10:19:13.911Z,44.66
2023-02-24T10:22:29.609Z,44.50
2023-02-24T10:25:23.814Z,44.31
2023-02-24T10:28:23.041Z,44.23
2023-02-24T10:31:12.465Z,44.27
2023-02-24T10:33:47.541Z,44.62
2023-02-24T10:36:21.807Z,44.12
2023-02-24T10:38:52.975Z,44.79
2023-02-24T10:41:30.872Z,44.53
2023-02-24T10:44:01.500Z,44.30
2023-02-24T10:46:50.196Z,44.17
2023-02-24T10:49:22.431Z,44.46
2023-02-24T10:51:55.554Z,44.83
2023-02-24T10:54:58.476Z,44.43
2023-02-24T10:57:50.367Z,44.91
2023-02-24T11:00:53.308Z,44.90
2023-02-24T11:03:38.289Z,45.09
2023-02-24T11:06:33.038Z,44.92
2023-02-24T11:09:21.445Z,45.13
2023-02-24T11:12:11.167Z,45.41
2023-02-24T11:15:14.067Z,45.25
2023-02-24T11:20:56.947Z,45.64
2023-02-24T11:23:33.077Z,45.90
2023-02-24T11:26:24.655Z,45.53
2023-02-24T11:29:32.209Z,45.97
2023-02-24T11:32:33.713Z,45.88
2023-02-24T11:35:40.062Z,46.16
2023-02-24T11:38:20.029Z,46.15
2023-02-24T11:40:58.122Z,45.86
2023-02-24T11:43:32.428Z,46.14
2023-02-24T11:46:28.983Z,46.67
2023-02-24T11:49:02.189Z,46.53
2023-02-24T11:51:39.372Z,46.80
2023-02-24T11:54:15.373Z,46.57
2023-02-24T11:56:49.392Z,46.91
2023-02-24T11:59:33.082Z,46.61
2023-02-24T12:02:15.312Z,47.08
2023-02-24T12:05:09.130Z,47.00
2023-02-24T12:07:43.949Z,47.08
2023-02-24T12:10:30.298Z,47.35
2023-02-24T12:13:32.018Z,47.43
2023-02-24T12:16:23.661Z,47.74
2023-02-24T12:19:25.605Z,47.60
2023-02-24T12:22:09.910Z,47.91
2023-02-24T12:24:42.456Z,47.64
2023-02-24T12:27:27.764Z,47.79
2023-02-24T12:30:50.820Z,47.89
2023-02-24T12:33:23.881Z,47.99
2023-02-24T12:36:05.317Z,47.98
2023-02-24T12:38:48.491Z,48.09
2023-02-24T12:41:44.471Z,48.12
2023-02-24T12:44:33.773Z,48.28
2023-02-24T12:47:17.302Z,48.45
2023-02-24T12:53:08.635Z,48.12
2023-02-24T12:56:15.103Z,48.16
2023-02-24T12:58:48.899Z,48.22
2023-02-24T13:01:27.634Z,48.70
2023-02-24T13:50:05.055Z,51.50
2023-02-24T13:52:53.226Z,50.93
2023-02-24T13:55:52.144Z,51.40
2023-02-24T13:58:34.049Z,51.08
2023-02-24T14:01:12.011Z,51.37
2023-02-24T14:03:45.958Z,51.17
2023-02-24T14:06:29.598Z,50.94
2023-02-24T14:09:07.378Z,50.62
2023-02-24T14:11:40.136Z,50.60
2023-02-24T14:14:20.406Z,50.55
2023-02-24T14:16:53.535Z,50.60
2023-02-24T14:19:23.683Z,50.64
2023-02-24T14:22:03.815Z,50.43
2023-02-24T14:24:33.947Z,50.64
2023-02-24T14:27:04.630Z,50.58
2023-02-24T14:29:44.274Z,50.56
2023-02-24T14:32:26.082Z,50.80
2023-02-24T14:34:57.767Z,50.85
2023-02-24T14:37:33.371Z,50.58
2023-02-24T14:40:08.046Z,50.84
2023-02-24T14:42:38.680Z,50.89
2023-02-24T14:45:20.312Z,50.79
2023-02-24T14:47:50.176Z,50.50
2023-02-24T14:50:26.248Z,50.83
2023-02-24T14:53:00.315Z,51.09
2023-02-24T14:55:41.045Z,51.03
2023-02-24T14:58:19.712Z,51.07
2023-02-24T15:01:39.038Z,50.81
2023-02-24T15:04:33.697Z,50.58
2023-02-24T15:07:07.539Z,50.92
2023-02-24T15:09:43.583Z,51.24
2023-02-24T15:12:16.843Z,51.24
2023-02-24T15:14:54.056Z,51.15
2023-02-24T15:17:25.957Z,51.38
2023-02-24T15:19:58.987Z,51.96
2023-02-24T15:22:41.477Z,53.08
2023-02-24T15:25:33.764Z,54.17
2023-02-24T15:28:29.017Z,54.49
2023-02-24T15:31:05.686Z,53.95
2023-02-24T15:33:42.689Z,54.68
2023-02-24T15:36:22.719Z,55.00
2023-02-24T15:39:00.612Z,54.34
2023-02-24T15:41:43.849Z,54.30
2023-02-24T15:44:33.012Z,54.27
2023-02-24T15:47:14.976Z,54.58
2023-02-24T15:49:45.190Z,54.20
2023-02-24T15:52:16.121Z,54.20
2023-02-24T15:54:46.051Z,54.16
2023-02-24T15:57:19.035Z,54.96
2023-02-24T15:59:49.635Z,55.62
2023-02-24T16:02:22.428Z,55.86
2023-02-24T16:04:54.245Z,55.97
2023-02-24T16:07:29.433Z,55.14
2023-02-24T16:10:03.025Z,54.90
2023-02-24T16:12:38.597Z,52.79
2023-02-24T16:15:12.098Z,52.58
2023-02-24T16:17:45.270Z,52.16
2023-02-24T16:20:29.619Z,51.92
2023-02-24T16:23:05.505Z,51.91
2023-02-24T16:25:45.081Z,51.56
2023-02-24T16:28:20.880Z,51.40
2023-02-24T16:31:09.698Z,51.03
2023-02-24T16:33:53.690Z,51.25
2023-02-24T16:36:30.081Z,50.49
2023-02-24T16:39:00.603Z,50.48
2023-02-24T16:41:32.736Z,50.21
2023-02-24T16:44:03.065Z,50.32
2023-02-24T16:46:39.975Z,49.54
2023-02-24T16:49:12.730Z,48.92
2023-02-24T16:51:43.059Z,48.94
2023-02-24T16:54:13.711Z,48.35
2023-02-24T16:56:44.072Z,48.12
2023-02-24T16:59:14.408Z,48.25
2023-02-24T17:01:45.248Z,47.55
2023-02-24T17:04:16.747Z,47.40
2023-02-24T17:06:46.848Z,47.28
2023-02-24T17:09:17.915Z,47.27
2023-02-24T17:11:47.978Z,46.24
2023-02-24T17:14:23.034Z,46.85
2023-02-24T17:16:53.359Z,47.13
2023-02-24T17:19:26.604Z,46.76
2023-02-24T17:21:56.894Z,46.76
2023-02-24T17:24:36.337Z,46.66
2023-02-24T17:29:52.260Z,46.67
2023-02-24T17:32:23.848Z,46.42
2023-02-24T17:34:54.121Z,45.54
2023-02-24T17:37:24.976Z,46.08
2023-02-24T17:39:55.221Z,45.93
2023-02-24T17:42:25.789Z,46.03
2023-02-24T17:44:56.093Z,46.50
2023-02-24T17:47:26.419Z,45.88
2023-02-24T17:50:15.786Z,45.26
2023-02-24T17:52:47.152Z,46.11
2023-02-24T17:55:17.566Z,46.24
2023-02-24T17:57:48.479Z,45.73
2023-02-24T18:00:19.092Z,45.72
2023-02-24T18:02:49.493Z,45.77
2023-02-24T18:05:20.270Z,45.17
2023-02-24T18:07:51.392Z,45.30
2023-02-24T18:10:21.858Z,44.98
2023-02-24T18:12:52.195Z,44.90
2023-02-24T18:15:22.651Z,45.13
2023-02-24T18:17:52.864Z,44.86
2023-02-24T18:20:23.160Z,44.52
2023-02-24T18:22:56.477Z,44.16
2023-02-24T18:25:27.098Z,43.86
2023-02-24T18:27:57.341Z,44.16
2023-02-24T18:30:27.438Z,43.88
2023-02-24T18:32:57.670Z,43.96
2023-02-24T18:35:28.112Z,44.00
2023-02-24T18:38:01.053Z,43.55
2023-02-24T18:40:32.527Z,43.52
2023-02-24T18:43:02.736Z,43.75
2023-02-24T18:45:35.331Z,43.63
2023-02-24T18:48:07.147Z,43.58
2023-02-24T18:50:38.379Z,43.59
2023-02-24T18:53:08.565Z,43.36
2023-02-24T18:55:39.224Z,43.54
2023-02-24T18:58:09.358Z,43.67
2023-02-24T19:00:39.376Z,43.05
2023-02-24T19:03:09.570Z,43.34
2023-02-24T19:05:39.893Z,43.29
2023-02-24T19:08:10.037Z,43.35
2023-02-24T19:10:42.623Z,43.32
2023-02-24T19:13:13.720Z,43.13
2023-02-24T19:15:44.030Z,43.20
2023-02-24T19:18:14.377Z,43.28
2023-02-24T19:20:45.703Z,43.29
2023-02-24T19:23:15.375Z,43.09
2023-02-24T19:25:46.449Z,43.66
2023-02-24T19:28:16.142Z,43.59
2023-02-24T19:30:46.155Z,43.43
2023-02-24T19:33:16.239Z,43.39
2023-02-24T19:35:46.515Z,43.62
2023-02-24T19:38:19.531Z,43.43
2023-02-24T19:40:49.761Z,43.54
2023-02-24T19:43:19.838Z,43.26
2023-02-24T19:45:49.963Z,43.28
2023-02-24T19:48:20.320Z,43.14
2023-02-24T19:50:50.503Z,43.37
2023-02-24T19:53:20.670Z,43.48
2023-02-24T19:55:52.023Z,43.28
2023-02-24T19:58:22.099Z,43.44
2023-02-24T20:00:52.109Z,43.62
2023-02-24T20:03:22.620Z,43.40
2023-02-24T20:05:52.660Z,43.44
2023-02-24T20:08:22.554Z,43.41
2023-02-24T20:11:04.711Z,43.55
2023-02-24T20:13:35.599Z,43.51
2023-02-24T20:16:10.832Z,43.91
2023-02-24T20:18:41.601Z,43.90
2023-02-24T20:21:13.248Z,43.92
2023-02-24T20:23:45.177Z,43.94
2023-02-24T20:26:19.026Z,43.91
2023-02-24T20:28:51.847Z,43.80
2023-02-24T20:31:24.656Z,43.91
2023-02-24T20:33:56.452Z,44.37
2023-02-24T20:36:29.660Z,44.25
2023-02-24T20:39:01.845Z,44.16
2023-02-24T20:41:33.147Z,44.26
2023-02-24T20:44:02.816Z,44.27
2023-02-24T20:46:34.867Z,44.33
2023-02-24T20:49:09.769Z,44.29
2023-02-24T20:51:40.448Z,44.47
2023-02-24T20:54:13.587Z,44.50
2023-02-24T20:56:45.799Z,44.67
2023-02-24T20:59:22.559Z,44.55
2023-02-24T21:01:53.425Z,44.61
2023-02-24T21:04:24.780Z,44.83
2023-02-24T21:06:56.804Z,44.94
2023-02-24T21:09:28.744Z,45.08
2023-02-24T21:11:58.881Z,45.05
2023-02-24T21:14:28.729Z,45.36
2023-02-24T21:16:59.083Z,44.84
2023-02-24T21:22:14.951Z,45.39
2023-02-24T21:24:45.206Z,45.54
2023-02-24T21:27:15.518Z,45.51
2023-02-24T21:29:47.406Z,45.39
2023-02-24T21:32:17.622Z,45.40
2023-02-24T21:34:48.340Z,45.54
2023-02-24T21:37:19.477Z,45.46
2023-02-24T21:39:49.586Z,45.51
2023-02-24T21:42:19.532Z,45.46
2023-02-24T21:44:53.225Z,45.70
2023-02-24T21:47:23.254Z,45.42
2023-02-24T21:49:53.307Z,45.50
2023-02-24T21:52:23.332Z,45.64
2023-02-24T21:54:53.202Z,45.87
2023-02-24T21:57:23.277Z,45.75
2023-02-24T21:59:53.210Z,45.51
2023-02-24T22:02:24.827Z,45.62
2023-02-24T22:04:54.956Z,45.78
2023-02-24T22:07:24.800Z,46.08
2023-02-24T22:09:54.941Z,45.79
2023-02-24T22:12:25.320Z,45.71
2023-02-24T22:14:55.475Z,45.63
2023-02-24T22:17:25.562Z,45.97
2023-02-24T22:19:55.525Z,46.08
2023-02-24T22:22:26.217Z,46.43
2023-02-24T22:24:57.107Z,46.05
2023-02-24T22:27:27.473Z,46.51
2023-02-24T22:29:58.308Z,46.62
2023-02-24T22:32:29.267Z,46.41
2023-02-24T22:34:59.912Z,46.48
2023-02-24T22:37:30.107Z,46.68
2023-02-24T22:40:00.295Z,46.73
2023-02-24T22:42:48.298Z,46.53
2023-02-24T22:45:19.868Z,46.91
2023-02-24T22:47:49.967Z,47.01
2023-02-24T22:50:20.119Z,47.15
2023-02-24T22:52:51.435Z,46.86
2023-02-24T22:55:22.606Z,47.05
2023-02-24T22:57:52.717Z,46.87
2023-02-24T23:00:25.511Z,46.86
2023-02-24T23:02:55.861Z,46.81
2023-02-24T23:05:25.721Z,47.04
2023-02-24T23:07:56.881Z,46.90
2023-02-24T23:10:26.957Z,47.13
2023-02-24T23:12:57.573Z,46.75
2023-02-24T23:15:27.658Z,46.72
2023-02-24T23:17:57.838Z,47.08
2023-02-24T23:20:28.029Z,47.02
2023-02-24T23:22:58.119Z,46.94
2023-02-24T23:25:28.303Z,46.75
2023-02-24T23:27:58.396Z,46.71
2023-02-24T23:30:28.602Z,46.78
2023-02-24T23:32:59.464Z,46.78
2023-02-24T23:35:29.738Z,46.91
2023-02-24T23:38:00.149Z,46.95
2023-02-24T23:40:35.920Z,46.58
2023-02-24T23:43:12.236Z,47.02
2023-02-24T23:45:44.550Z,46.82
2023-02-24T23:48:16.732Z,46.74
2023-02-24T23:50:48.102Z,46.81
2023-02-24T23:53:17.712Z,47.46
2023-02-24T23:55:47.527Z,47.99
2023-02-24T23:58:18.838Z,50.48
